This is the latest recevied weather packets stored in our database for station/object VA6NA. If no packets are shown the sender has not sent any weather packets the latest 10 day(s).
| Time | Temp. | Humidity | Pressure | Rain* | Wind** | Luminosity | Snow |
|---|---|---|---|---|---|---|---|
| 1777774823 | 20.56° C | 34% | 1012.3 hPa | 0 mm | - | - | - |
| 1777774219 | 20.56° C | 34% | 1012.3 hPa | 0 mm | - | - | - |
| 1777764626 | 22.78° C | 35% | 1014.4 hPa | 0 mm | - | - | - |
| 1777761028 | 23.33° C | 34% | 1015.7 hPa | 0 mm | - | - | - |
| 1777757449 | 22.22° C | 34% | 1016.7 hPa | 0 mm | - | - | - |
| 1777755017 | 22.22° C | 34% | 1017.3 hPa | 0 mm | - | - | - |
| 1777753831 | 22.22° C | 35% | 1017.8 hPa | 0 mm | - | - | - |
| 1777753233 | 21.67° C | 35% | 1017.9 hPa | 0 mm | - | - | - |
| 1777750832 | 20.56° C | 36% | 1018.7 hPa | 0 mm | - | - | - |
| 1777743630 | 18.33° C | 41% | 1020.6 hPa | 0 mm | - | - | - |
| 1777740618 | 17.22° C | 45% | 1020.9 hPa | 0 mm | - | - | - |
| 1777738216 | 16.67° C | 48% | 1021.2 hPa | 0 mm | - | - | - |
| 1777737618 | 16.11° C | 51% | 1021.3 hPa | 0 mm | - | - | - |
| 1777737033 | 17.78° C | 48% | 1021.4 hPa | 0 mm | - | - | - |
| 1777735228 | 17.22° C | 51% | 1021.7 hPa | 0 mm | - | - | - |
| 1777732224 | 13.33° C | 60% | 1021.9 hPa | 0 mm | - | - | - |
| 1777729822 | 10.56° C | 66% | 1022.1 hPa | 0 mm | - | - | - |
| 1777726267 | 6.67° C | 78% | 1021.9 hPa | 0 mm | - | - | - |
| 1777725620 | 6.11° C | 79% | 1021.9 hPa | 0 mm | - | - | - |
| 1777722626 | 4.44° C | 83% | 1021.5 hPa | 0 mm | - | - | - |
| 1777718422 | 6.11° C | 81% | 1021.5 hPa | 0 mm | - | - | - |
| 1777712420 | 5° C | 83% | 1021.2 hPa | 0 mm | - | - | - |
| 1777711227 | 5.56° C | 81% | 1021.1 hPa | 0 mm | - | - | - |
| 1777707626 | 6.67° C | 77% | 1021 hPa | 0 mm | - | - | - |
| 1777705232 | 8.33° C | 74% | 1020.8 hPa | 0 mm | - | - | - |
* Rain latest hour (hover to see other rain measurements)
** Current wind speed in m/s (hover to see current wind gust speed)